TimeCDT,TemperatureF,Dew PointF,Humidity,Sea Level PressureIn,VisibilityMPH,Wind Direction,Wind SpeedMPH,Gust SpeedMPH,PrecipitationIn,Events,Conditions,WindDirDegrees,DateUTC
12:53 AM,39.0,27.0,62,30.32,10.0,NE,10.4,-,N/A,,Clear,50,2012-10-12 05:53:00
1:53 AM,37.0,27.0,67,30.33,10.0,NE,8.1,-,N/A,,Clear,40,2012-10-12 06:53:00
2:53 AM,36.0,26.1,67,30.33,10.0,NE,9.2,-,N/A,,Clear,50,2012-10-12 07:53:00
3:53 AM,37.9,26.1,62,30.31,10.0,NE,10.4,-,N/A,,Clear,40,2012-10-12 08:53:00
4:53 AM,39.2,24.8,56,30.29,10.0,ENE,10.4,-,N/A,,Clear,60,2012-10-12 09:53:00
5:53 AM,36.0,23.0,59,30.31,10.0,NE,5.8,-,N/A,,Clear,50,2012-10-12 10:53:00
6:53 AM,35.1,21.9,59,30.31,10.0,ENE,8.1,-,N/A,,Clear,70,2012-10-12 11:53:00
7:44 AM,35.6,21.2,56,30.28,10.0,ENE,9.2,-,N/A,,Overcast,70,2012-10-12 12:44:00
7:53 AM,36.0,21.9,57,30.32,10.0,East,9.2,-,N/A,,Overcast,80,2012-10-12 12:53:00
8:53 AM,37.4,21.2,52,30.30,10.0,East,10.4,-,N/A,,Overcast,90,2012-10-12 13:53:00
9:53 AM,39.9,21.0,47,30.31,10.0,East,8.1,-,N/A,,Overcast,90,2012-10-12 14:53:00
10:53 AM,41.0,21.9,47,30.29,10.0,East,6.9,-,N/A,,Overcast,100,2012-10-12 15:53:00
11:53 AM,42.8,21.2,42,30.25,10.0,ESE,10.4,-,N/A,,Overcast,120,2012-10-12 16:53:00
12:53 PM,45.0,26.1,48,30.26,10.0,SSE,11.5,17.3,N/A,,Overcast,150,2012-10-12 17:53:00
1:53 PM,45.0,34.0,65,30.24,8.0,SSE,11.5,-,N/A,,Overcast,160,2012-10-12 18:53:00
2:53 PM,46.9,34.0,61,30.19,10.0,South,8.1,-,N/A,,Overcast,170,2012-10-12 19:53:00
3:53 PM,48.9,36.0,61,30.16,10.0,South,8.1,-,N/A,,Overcast,180,2012-10-12 20:53:00
4:53 PM,50.0,35.6,58,30.10,10.0,South,10.4,-,N/A,,Overcast,170,2012-10-12 21:53:00
5:13 PM,50.0,35.6,58,30.08,10.0,SSE,9.2,-,N/A,,Overcast,150,2012-10-12 22:13:00
5:38 PM,50.0,35.6,58,30.08,10.0,SSE,12.7,-,N/A,,Overcast,160,2012-10-12 22:38:00
6:53 PM,48.9,37.0,64,30.07,8.0,SSE,12.7,19.6,N/A,,Overcast,160,2012-10-12 23:53:00
7:53 PM,48.0,39.0,71,30.08,10.0,South,11.5,20.7,N/A,,Overcast,190,2012-10-13 00:53:00
8:53 PM,48.0,39.0,71,30.04,10.0,South,9.2,-,N/A,,Overcast,170,2012-10-13 01:53:00
9:53 PM,48.9,39.0,69,30.03,10.0,South,8.1,-,N/A,,Overcast,190,2012-10-13 02:53:00
10:53 PM,50.0,43.0,77,30.01,10.0,South,9.2,-,N/A,,Overcast,180,2012-10-13 03:53:00
11:48 PM,50.0,44.6,82,29.97,10.0,South,6.9,-,N/A,,Overcast,190,2012-10-13 04:48:00
11:53 PM,50.0,45.0,83,29.98,10.0,South,8.1,-,N/A,,Overcast,180,2012-10-13 04:53:00